createdAt,value
2023-04-28T20:22:14.579Z,99.26
2023-04-28T20:24:47.059Z,99.01
2023-04-28T20:27:13.664Z,99.14
2023-04-28T20:29:40.120Z,98.85
2023-04-28T20:32:06.650Z,99.16
2023-04-28T20:34:33.962Z,99.63
2023-04-28T20:37:04.215Z,99.56
2023-04-28T20:39:30.715Z,99.82
2023-04-28T20:41:58.895Z,98.44
2023-04-28T20:44:25.692Z,97.14
2023-04-28T20:46:52.498Z,96.97
2023-04-28T20:49:19.321Z,96.54
2023-04-28T20:51:46.037Z,96.58
2023-04-28T20:54:13.042Z,96.12
2023-04-28T20:56:40.135Z,95.43
2023-04-28T20:59:06.536Z,95.02
2023-04-28T21:01:32.929Z,94.68
2023-04-28T21:03:59.454Z,93.57
2023-04-28T21:06:25.965Z,93.39
2023-04-28T21:08:52.987Z,92.50
2023-04-28T21:11:19.640Z,93.35
2023-04-28T21:13:46.122Z,93.57
2023-04-28T21:16:17.581Z,92.33
2023-04-28T21:18:47.155Z,93.11
2023-04-28T21:21:16.710Z,93.01
2023-04-28T21:23:43.355Z,93.10
2023-04-28T21:26:10.300Z,93.11
2023-04-28T21:28:37.178Z,92.78
2023-04-28T21:31:04.889Z,91.77
2023-04-28T21:33:31.706Z,93.18
2023-04-28T21:35:58.343Z,92.67
2023-04-28T21:38:25.806Z,92.95
2023-04-28T21:40:52.542Z,93.00
2023-04-28T21:43:19.876Z,92.42
2023-04-28T21:45:46.550Z,93.14
2023-04-28T21:48:13.136Z,92.71
2023-04-28T21:50:39.715Z,92.84
2023-04-28T21:53:06.204Z,92.60
2023-04-28T21:55:32.744Z,91.93
2023-04-28T21:58:00.425Z,91.64
2023-04-28T22:00:28.055Z,92.48
2023-04-28T22:02:57.419Z,92.06
2023-04-28T22:05:24.849Z,90.39
2023-04-28T22:07:51.787Z,90.41
2023-04-28T22:10:19.323Z,90.70
2023-04-28T22:12:46.395Z,89.59
2023-04-28T22:15:12.918Z,89.87
2023-04-28T22:17:39.459Z,90.27
2023-04-28T22:20:06.917Z,90.15
2023-04-28T22:22:33.535Z,90.73
2023-04-28T22:25:04.034Z,90.62
2023-04-28T22:27:30.561Z,90.07
2023-04-28T22:29:59.059Z,90.64
2023-04-28T22:32:29.032Z,91.26
2023-04-28T22:34:55.523Z,90.70
2023-04-28T22:37:22.069Z,90.99
2023-04-28T22:39:48.821Z,91.15
2023-04-28T22:42:15.670Z,91.26
2023-04-28T22:44:42.345Z,91.91
2023-04-28T22:47:08.970Z,91.69
2023-04-28T22:49:35.569Z,91.50
2023-04-28T22:52:02.135Z,91.53
2023-04-28T22:54:28.624Z,92.01
2023-04-28T22:56:55.156Z,92.91
2023-04-28T22:59:22.133Z,92.99
2023-04-28T23:01:48.940Z,92.87
2023-04-28T23:04:16.362Z,92.51
2023-04-28T23:06:43.060Z,93.12
2023-04-28T23:09:09.443Z,92.38
2023-04-28T23:11:35.926Z,93.07
2023-04-28T23:14:02.357Z,91.89
2023-04-28T23:16:28.797Z,92.55
2023-04-28T23:18:55.303Z,93.32
2023-04-28T23:21:21.787Z,92.71
2023-04-28T23:23:48.182Z,92.82
2023-04-28T23:26:14.735Z,91.99
2023-04-28T23:28:41.145Z,92.11
2023-04-28T23:31:07.584Z,91.98
2023-04-28T23:33:34.300Z,92.04
2023-04-28T23:36:00.692Z,91.63
2023-04-28T23:38:27.139Z,92.05
2023-04-28T23:40:53.671Z,92.94
2023-04-28T23:43:20.140Z,92.79
2023-04-28T23:45:46.794Z,92.74
2023-04-28T23:48:13.195Z,92.52
2023-04-28T23:50:39.637Z,92.42
2023-04-28T23:53:06.179Z,92.41
2023-04-28T23:55:32.635Z,91.64
2023-04-28T23:57:59.060Z,91.83
